sensor_id;sensor_type;location;lat;lon;timestamp;P1;durP1;ratioP1;P2;durP2;ratioP2
10041;SDS011;5061;49.068;12.058;2023-03-05T00:00:13;24.33;;;12.47;;
10041;SDS011;5061;49.068;12.058;2023-03-05T00:03:34;25.27;;;14.17;;
10041;SDS011;5061;49.068;12.058;2023-03-05T00:06:55;37.10;;;17.40;;
10041;SDS011;5061;49.068;12.058;2023-03-05T00:10:16;30.33;;;14.60;;
10041;SDS011;5061;49.068;12.058;2023-03-05T00:13:37;36.97;;;14.73;;
10041;SDS011;5061;49.068;12.058;2023-03-05T00:16:58;28.47;;;14.03;;
10041;SDS011;5061;49.068;12.058;2023-03-05T00:20:18;27.30;;;13.27;;
10041;SDS011;5061;49.068;12.058;2023-03-05T00:23:39;30.87;;;14.00;;
10041;SDS011;5061;49.068;12.058;2023-03-05T00:27:00;26.10;;;13.10;;
10041;SDS011;5061;49.068;12.058;2023-03-05T00:30:21;27.03;;;14.47;;
10041;SDS011;5061;49.068;12.058;2023-03-05T00:33:42;33.40;;;14.83;;
10041;SDS011;5061;49.068;12.058;2023-03-05T00:37:03;29.27;;;15.13;;
10041;SDS011;5061;49.068;12.058;2023-03-05T00:40:23;28.20;;;15.40;;
10041;SDS011;5061;49.068;12.058;2023-03-05T00:43:45;29.50;;;15.20;;
10041;SDS011;5061;49.068;12.058;2023-03-05T00:47:06;30.43;;;15.53;;
10041;SDS011;5061;49.068;12.058;2023-03-05T00:50:26;34.93;;;13.80;;
10041;SDS011;5061;49.068;12.058;2023-03-05T00:53:47;33.53;;;15.10;;
10041;SDS011;5061;49.068;12.058;2023-03-05T00:57:08;33.53;;;15.63;;
10041;SDS011;5061;49.068;12.058;2023-03-05T01:00:28;37.70;;;16.17;;
10041;SDS011;5061;49.068;12.058;2023-03-05T01:03:49;29.90;;;16.30;;
10041;SDS011;5061;49.068;12.058;2023-03-05T01:07:10;33.30;;;15.90;;
10041;SDS011;5061;49.068;12.058;2023-03-05T01:10:31;35.60;;;15.57;;
10041;SDS011;5061;49.068;12.058;2023-03-05T01:13:51;34.40;;;16.20;;
10041;SDS011;5061;49.068;12.058;2023-03-05T01:17:12;25.80;;;13.97;;
10041;SDS011;5061;49.068;12.058;2023-03-05T01:20:32;34.33;;;16.57;;
10041;SDS011;5061;49.068;12.058;2023-03-05T01:23:53;36.03;;;17.10;;
10041;SDS011;5061;49.068;12.058;2023-03-05T01:27:14;33.50;;;16.27;;
10041;SDS011;5061;49.068;12.058;2023-03-05T01:30:34;36.13;;;17.97;;
10041;SDS011;5061;49.068;12.058;2023-03-05T01:33:55;37.37;;;16.60;;
10041;SDS011;5061;49.068;12.058;2023-03-05T01:37:16;39.93;;;18.50;;
10041;SDS011;5061;49.068;12.058;2023-03-05T01:40:36;31.33;;;16.17;;
10041;SDS011;5061;49.068;12.058;2023-03-05T01:43:57;35.70;;;17.90;;
10041;SDS011;5061;49.068;12.058;2023-03-05T01:47:18;36.30;;;17.03;;
10041;SDS011;5061;49.068;12.058;2023-03-05T01:50:38;41.10;;;16.47;;
10041;SDS011;5061;49.068;12.058;2023-03-05T01:53:59;32.80;;;15.57;;
10041;SDS011;5061;49.068;12.058;2023-03-05T01:57:22;36.60;;;17.13;;
10041;SDS011;5061;49.068;12.058;2023-03-05T02:00:47;35.37;;;16.67;;
10041;SDS011;5061;49.068;12.058;2023-03-05T02:04:10;38.50;;;16.77;;
10041;SDS011;5061;49.068;12.058;2023-03-05T02:07:35;37.07;;;17.60;;
10041;SDS011;5061;49.068;12.058;2023-03-05T02:10:59;48.20;;;18.80;;
10041;SDS011;5061;49.068;12.058;2023-03-05T02:14:21;40.67;;;17.67;;
10041;SDS011;5061;49.068;12.058;2023-03-05T02:17:43;33.00;;;16.83;;
10041;SDS011;5061;49.068;12.058;2023-03-05T02:21:05;39.00;;;16.80;;
10041;SDS011;5061;49.068;12.058;2023-03-05T02:24:33;38.20;;;16.50;;
10041;SDS011;5061;49.068;12.058;2023-03-05T02:27:57;37.53;;;17.10;;
10041;SDS011;5061;49.068;12.058;2023-03-05T02:31:22;48.23;;;17.83;;
10041;SDS011;5061;49.068;12.058;2023-03-05T02:34:44;36.90;;;17.73;;
10041;SDS011;5061;49.068;12.058;2023-03-05T02:38:04;40.40;;;17.30;;
10041;SDS011;5061;49.068;12.058;2023-03-05T02:41:25;38.93;;;16.57;;
10041;SDS011;5061;49.068;12.058;2023-03-05T02:44:46;40.70;;;16.57;;
10041;SDS011;5061;49.068;12.058;2023-03-05T02:48:07;43.03;;;17.17;;
10041;SDS011;5061;49.068;12.058;2023-03-05T02:51:27;34.57;;;18.40;;
10041;SDS011;5061;49.068;12.058;2023-03-05T02:54:48;35.97;;;17.60;;
10041;SDS011;5061;49.068;12.058;2023-03-05T02:58:09;36.40;;;17.73;;
10041;SDS011;5061;49.068;12.058;2023-03-05T03:01:30;41.80;;;20.00;;
10041;SDS011;5061;49.068;12.058;2023-03-05T03:04:50;37.20;;;15.90;;
10041;SDS011;5061;49.068;12.058;2023-03-05T03:08:11;40.10;;;18.37;;
10041;SDS011;5061;49.068;12.058;2023-03-05T03:11:31;37.20;;;16.50;;
10041;SDS011;5061;49.068;12.058;2023-03-05T03:14:52;35.80;;;16.53;;
10041;SDS011;5061;49.068;12.058;2023-03-05T03:18:13;46.27;;;18.93;;
10041;SDS011;5061;49.068;12.058;2023-03-05T03:21:33;43.43;;;20.40;;
10041;SDS011;5061;49.068;12.058;2023-03-05T03:24:54;37.30;;;17.30;;
10041;SDS011;5061;49.068;12.058;2023-03-05T03:28:15;47.67;;;19.37;;
10041;SDS011;5061;49.068;12.058;2023-03-05T03:31:35;39.97;;;16.43;;
10041;SDS011;5061;49.068;12.058;2023-03-05T03:34:59;39.43;;;18.03;;
10041;SDS011;5061;49.068;12.058;2023-03-05T03:38:20;39.97;;;20.13;;
10041;SDS011;5061;49.068;12.058;2023-03-05T03:41:41;43.77;;;20.17;;
10041;SDS011;5061;49.068;12.058;2023-03-05T03:45:06;41.13;;;18.70;;
10041;SDS011;5061;49.068;12.058;2023-03-05T03:48:27;37.90;;;18.87;;
10041;SDS011;5061;49.068;12.058;2023-03-05T03:51:48;40.03;;;17.83;;
10041;SDS011;5061;49.068;12.058;2023-03-05T03:55:10;37.80;;;16.80;;
10041;SDS011;5061;49.068;12.058;2023-03-05T03:58:31;35.57;;;16.47;;
10041;SDS011;5061;49.068;12.058;2023-03-05T04:01:52;37.00;;;16.50;;
10041;SDS011;5061;49.068;12.058;2023-03-05T04:05:12;34.80;;;16.37;;
10041;SDS011;5061;49.068;12.058;2023-03-05T04:08:33;36.17;;;16.57;;
10041;SDS011;5061;49.068;12.058;2023-03-05T04:11:54;40.80;;;17.43;;
10041;SDS011;5061;49.068;12.058;2023-03-05T04:15:14;35.60;;;17.03;;
10041;SDS011;5061;49.068;12.058;2023-03-05T04:18:35;37.23;;;18.00;;
10041;SDS011;5061;49.068;12.058;2023-03-05T04:21:56;37.73;;;15.43;;
10041;SDS011;5061;49.068;12.058;2023-03-05T04:25:17;39.53;;;16.00;;
10041;SDS011;5061;49.068;12.058;2023-03-05T04:28:38;35.43;;;16.63;;
10041;SDS011;5061;49.068;12.058;2023-03-05T04:31:59;44.80;;;17.13;;
10041;SDS011;5061;49.068;12.058;2023-03-05T04:35:20;43.30;;;18.60;;
10041;SDS011;5061;49.068;12.058;2023-03-05T04:38:40;46.77;;;16.70;;
10041;SDS011;5061;49.068;12.058;2023-03-05T04:42:01;37.20;;;16.10;;
10041;SDS011;5061;49.068;12.058;2023-03-05T04:45:21;44.83;;;16.63;;
10041;SDS011;5061;49.068;12.058;2023-03-05T04:48:42;33.30;;;14.20;;
10041;SDS011;5061;49.068;12.058;2023-03-05T04:52:02;40.77;;;17.43;;
10041;SDS011;5061;49.068;12.058;2023-03-05T04:55:23;35.27;;;15.13;;
10041;SDS011;5061;49.068;12.058;2023-03-05T04:58:44;45.33;;;18.50;;
10041;SDS011;5061;49.068;12.058;2023-03-05T05:02:04;32.13;;;15.03;;
10041;SDS011;5061;49.068;12.058;2023-03-05T05:05:25;42.33;;;18.20;;
10041;SDS011;5061;49.068;12.058;2023-03-05T05:08:47;33.87;;;15.00;;
10041;SDS011;5061;49.068;12.058;2023-03-05T05:12:08;41.30;;;17.30;;
10041;SDS011;5061;49.068;12.058;2023-03-05T05:15:29;40.30;;;15.13;;
10041;SDS011;5061;49.068;12.058;2023-03-05T05:18:51;36.03;;;16.20;;
10041;SDS011;5061;49.068;12.058;2023-03-05T05:22:11;43.77;;;18.07;;
10041;SDS011;5061;49.068;12.058;2023-03-05T05:25:32;41.27;;;15.80;;
10041;SDS011;5061;49.068;12.058;2023-03-05T05:28:53;36.20;;;15.27;;
10041;SDS011;5061;49.068;12.058;2023-03-05T05:32:13;35.53;;;16.07;;
10041;SDS011;5061;49.068;12.058;2023-03-05T05:35:37;35.90;;;15.20;;
10041;SDS011;5061;49.068;12.058;2023-03-05T05:38:58;35.03;;;16.13;;
10041;SDS011;5061;49.068;12.058;2023-03-05T05:42:20;40.07;;;17.13;;
10041;SDS011;5061;49.068;12.058;2023-03-05T05:45:42;38.30;;;17.10;;
10041;SDS011;5061;49.068;12.058;2023-03-05T05:49:04;32.20;;;15.90;;
10041;SDS011;5061;49.068;12.058;2023-03-05T05:52:24;34.97;;;16.10;;
10041;SDS011;5061;49.068;12.058;2023-03-05T05:55:45;30.70;;;13.70;;
10041;SDS011;5061;49.068;12.058;2023-03-05T05:59:05;35.70;;;15.93;;
10041;SDS011;5061;49.068;12.058;2023-03-05T06:02:26;39.53;;;16.80;;
10041;SDS011;5061;49.068;12.058;2023-03-05T06:05:47;42.73;;;15.53;;
10041;SDS011;5061;49.068;12.058;2023-03-05T06:09:07;43.17;;;15.87;;
10041;SDS011;5061;49.068;12.058;2023-03-05T06:12:28;35.17;;;15.00;;
10041;SDS011;5061;49.068;12.058;2023-03-05T06:15:56;27.60;;;14.13;;
10041;SDS011;5061;49.068;12.058;2023-03-05T06:19:21;33.57;;;14.23;;
10041;SDS011;5061;49.068;12.058;2023-03-05T06:22:42;36.73;;;15.90;;
10041;SDS011;5061;49.068;12.058;2023-03-05T06:26:03;31.00;;;14.03;;
10041;SDS011;5061;49.068;12.058;2023-03-05T06:29:25;39.30;;;15.30;;
10041;SDS011;5061;49.068;12.058;2023-03-05T06:32:46;35.70;;;14.53;;
10041;SDS011;5061;49.068;12.058;2023-03-05T06:36:11;35.90;;;13.60;;
10041;SDS011;5061;49.068;12.058;2023-03-05T06:39:32;36.07;;;13.33;;
10041;SDS011;5061;49.068;12.058;2023-03-05T06:42:53;34.10;;;15.20;;
10041;SDS011;5061;49.068;12.058;2023-03-05T06:46:17;28.73;;;13.60;;
10041;SDS011;5061;49.068;12.058;2023-03-05T06:49:45;30.43;;;11.90;;
10041;SDS011;5061;49.068;12.058;2023-03-05T06:53:06;32.43;;;13.90;;
10041;SDS011;5061;49.068;12.058;2023-03-05T06:56:27;36.80;;;15.83;;
10041;SDS011;5061;49.068;12.058;2023-03-05T06:59:48;30.03;;;13.00;;
10041;SDS011;5061;49.068;12.058;2023-03-05T07:03:08;32.90;;;13.83;;
10041;SDS011;5061;49.068;12.058;2023-03-05T07:06:33;30.03;;;13.60;;
10041;SDS011;5061;49.068;12.058;2023-03-05T07:09:55;33.07;;;12.47;;
10041;SDS011;5061;49.068;12.058;2023-03-05T07:13:16;37.23;;;12.70;;
10041;SDS011;5061;49.068;12.058;2023-03-05T07:16:36;28.47;;;11.90;;
10041;SDS011;5061;49.068;12.058;2023-03-05T07:19:57;30.10;;;12.70;;
10041;SDS011;5061;49.068;12.058;2023-03-05T07:23:17;29.83;;;13.00;;
10041;SDS011;5061;49.068;12.058;2023-03-05T07:26:38;37.00;;;13.70;;
10041;SDS011;5061;49.068;12.058;2023-03-05T07:29:59;30.30;;;13.20;;
10041;SDS011;5061;49.068;12.058;2023-03-05T07:33:19;31.60;;;14.33;;
10041;SDS011;5061;49.068;12.058;2023-03-05T07:36:40;32.17;;;12.93;;
10041;SDS011;5061;49.068;12.058;2023-03-05T07:40:02;29.80;;;12.47;;
10041;SDS011;5061;49.068;12.058;2023-03-05T07:43:23;33.53;;;14.33;;
10041;SDS011;5061;49.068;12.058;2023-03-05T07:46:44;28.50;;;12.60;;
10041;SDS011;5061;49.068;12.058;2023-03-05T07:50:05;41.07;;;13.30;;
10041;SDS011;5061;49.068;12.058;2023-03-05T07:53:26;28.30;;;12.00;;
10041;SDS011;5061;49.068;12.058;2023-03-05T07:56:46;27.07;;;12.03;;
10041;SDS011;5061;49.068;12.058;2023-03-05T08:00:07;32.00;;;12.47;;
10041;SDS011;5061;49.068;12.058;2023-03-05T08:03:28;32.23;;;12.70;;
10041;SDS011;5061;49.068;12.058;2023-03-05T08:06:49;25.00;;;10.63;;
10041;SDS011;5061;49.068;12.058;2023-03-05T08:10:10;21.70;;;10.23;;
10041;SDS011;5061;49.068;12.058;2023-03-05T08:13:31;28.43;;;11.70;;
10041;SDS011;5061;49.068;12.058;2023-03-05T08:16:51;24.73;;;9.60;;
10041;SDS011;5061;49.068;12.058;2023-03-05T08:20:12;25.87;;;11.93;;
10041;SDS011;5061;49.068;12.058;2023-03-05T08:23:33;29.13;;;10.00;;
10041;SDS011;5061;49.068;12.058;2023-03-05T08:26:54;20.80;;;10.13;;
10041;SDS011;5061;49.068;12.058;2023-03-05T08:30:17;25.60;;;10.20;;
10041;SDS011;5061;49.068;12.058;2023-03-05T08:33:40;21.23;;;10.87;;
10041;SDS011;5061;49.068;12.058;2023-03-05T08:37:01;18.77;;;10.15;;
10041;SDS011;5061;49.068;12.058;2023-03-05T08:40:22;21.10;;;10.20;;
10041;SDS011;5061;49.068;12.058;2023-03-05T08:43:42;19.27;;;10.83;;
10041;SDS011;5061;49.068;12.058;2023-03-05T08:47:03;21.47;;;9.80;;
10041;SDS011;5061;49.068;12.058;2023-03-05T08:50:24;28.77;;;11.87;;
10041;SDS011;5061;49.068;12.058;2023-03-05T08:53:45;25.70;;;11.63;;
10041;SDS011;5061;49.068;12.058;2023-03-05T08:57:06;27.80;;;13.10;;
10041;SDS011;5061;49.068;12.058;2023-03-05T09:00:27;29.80;;;12.53;;
10041;SDS011;5061;49.068;12.058;2023-03-05T09:03:48;28.77;;;12.10;;
10041;SDS011;5061;49.068;12.058;2023-03-05T09:07:08;27.37;;;11.50;;
10041;SDS011;5061;49.068;12.058;2023-03-05T09:10:30;27.27;;;12.53;;
10041;SDS011;5061;49.068;12.058;2023-03-05T09:13:50;26.80;;;11.53;;
10041;SDS011;5061;49.068;12.058;2023-03-05T09:17:11;25.00;;;10.67;;
10041;SDS011;5061;49.068;12.058;2023-03-05T09:20:32;29.20;;;13.67;;
10041;SDS011;5061;49.068;12.058;2023-03-05T09:23:52;28.33;;;13.13;;
10041;SDS011;5061;49.068;12.058;2023-03-05T09:27:18;26.70;;;11.40;;
10041;SDS011;5061;49.068;12.058;2023-03-05T09:30:39;26.73;;;11.70;;
10041;SDS011;5061;49.068;12.058;2023-03-05T09:33:59;25.57;;;11.17;;
10041;SDS011;5061;49.068;12.058;2023-03-05T09:37:20;33.07;;;13.13;;
10041;SDS011;5061;49.068;12.058;2023-03-05T09:40:46;27.13;;;12.30;;
10041;SDS011;5061;49.068;12.058;2023-03-05T09:47:57;24.83;;;11.00;;
10041;SDS011;5061;49.068;12.058;2023-03-05T09:51:38;26.03;;;11.50;;
10041;SDS011;5061;49.068;12.058;2023-03-05T09:55:00;22.23;;;10.40;;
10041;SDS011;5061;49.068;12.058;2023-03-05T10:01:55;26.97;;;12.07;;
10041;SDS011;5061;49.068;12.058;2023-03-05T10:05:25;22.20;;;10.53;;
10041;SDS011;5061;49.068;12.058;2023-03-05T10:08:56;23.50;;;9.70;;
10041;SDS011;5061;49.068;12.058;2023-03-05T10:12:20;30.67;;;10.40;;
10041;SDS011;5061;49.068;12.058;2023-03-05T10:26:58;32.87;;;13.87;;
10041;SDS011;5061;49.068;12.058;2023-03-05T10:37:51;27.77;;;12.97;;
10041;SDS011;5061;49.068;12.058;2023-03-05T10:41:28;27.20;;;11.10;;
10041;SDS011;5061;49.068;12.058;2023-03-05T10:44:58;24.27;;;10.57;;
10041;SDS011;5061;49.068;12.058;2023-03-05T10:48:44;27.23;;;12.70;;
10041;SDS011;5061;49.068;12.058;2023-03-05T10:52:31;27.73;;;11.00;;
10041;SDS011;5061;49.068;12.058;2023-03-05T10:56:00;28.37;;;11.13;;
10041;SDS011;5061;49.068;12.058;2023-03-05T10:59:24;23.00;;;9.70;;
10041;SDS011;5061;49.068;12.058;2023-03-05T11:03:18;24.00;;;10.30;;
10041;SDS011;5061;49.068;12.058;2023-03-05T11:06:33;28.03;;;11.30;;
10041;SDS011;5061;49.068;12.058;2023-03-05T11:10:13;18.93;;;9.60;;
10041;SDS011;5061;49.068;12.058;2023-03-05T11:13:59;21.53;;;9.93;;
10041;SDS011;5061;49.068;12.058;2023-03-05T11:17:27;22.30;;;8.90;;
10041;SDS011;5061;49.068;12.058;2023-03-05T11:21:06;19.13;;;9.50;;
10041;SDS011;5061;49.068;12.058;2023-03-05T11:24:36;19.50;;;9.20;;
10041;SDS011;5061;49.068;12.058;2023-03-05T11:27:57;18.67;;;9.50;;
10041;SDS011;5061;49.068;12.058;2023-03-05T11:31:21;16.70;;;7.70;;
10041;SDS011;5061;49.068;12.058;2023-03-05T11:34:43;19.23;;;9.57;;
10041;SDS011;5061;49.068;12.058;2023-03-05T11:38:06;18.87;;;8.80;;
10041;SDS011;5061;49.068;12.058;2023-03-05T11:45:16;18.20;;;8.73;;
10041;SDS011;5061;49.068;12.058;2023-03-05T11:48:38;18.53;;;9.33;;
10041;SDS011;5061;49.068;12.058;2023-03-05T11:55:43;21.80;;;10.53;;
10041;SDS011;5061;49.068;12.058;2023-03-05T11:59:31;22.77;;;10.57;;
10041;SDS011;5061;49.068;12.058;2023-03-05T12:02:59;19.93;;;9.50;;
10041;SDS011;5061;49.068;12.058;2023-03-05T12:06:34;19.23;;;9.40;;
10041;SDS011;5061;49.068;12.058;2023-03-05T12:10:05;19.00;;;8.50;;
10041;SDS011;5061;49.068;12.058;2023-03-05T12:13:34;22.97;;;9.13;;
10041;SDS011;5061;49.068;12.058;2023-03-05T12:17:09;21.23;;;8.97;;
10041;SDS011;5061;49.068;12.058;2023-03-05T12:27:47;20.17;;;8.80;;
10041;SDS011;5061;49.068;12.058;2023-03-05T12:38:02;19.07;;;8.97;;
10041;SDS011;5061;49.068;12.058;2023-03-05T12:41:43;28.23;;;10.17;;
10041;SDS011;5061;49.068;12.058;2023-03-05T12:51:51;19.33;;;9.40;;
10041;SDS011;5061;49.068;12.058;2023-03-05T12:58:52;16.50;;;8.60;;
10041;SDS011;5061;49.068;12.058;2023-03-05T13:02:22;14.87;;;7.10;;
10041;SDS011;5061;49.068;12.058;2023-03-05T13:05:49;14.47;;;7.10;;
10041;SDS011;5061;49.068;12.058;2023-03-05T13:09:16;16.70;;;7.00;;
10041;SDS011;5061;49.068;12.058;2023-03-05T13:12:37;10.00;;;6.03;;
10041;SDS011;5061;49.068;12.058;2023-03-05T13:15:58;9.40;;;5.27;;
10041;SDS011;5061;49.068;12.058;2023-03-05T13:19:19;11.13;;;6.43;;
10041;SDS011;5061;49.068;12.058;2023-03-05T13:22:41;10.97;;;5.20;;
10041;SDS011;5061;49.068;12.058;2023-03-05T13:26:08;14.00;;;5.43;;
10041;SDS011;5061;49.068;12.058;2023-03-05T13:29:44;10.20;;;5.17;;
10041;SDS011;5061;49.068;12.058;2023-03-05T13:33:15;10.70;;;5.70;;
10041;SDS011;5061;49.068;12.058;2023-03-05T13:36:39;8.93;;;5.40;;
10041;SDS011;5061;49.068;12.058;2023-03-05T13:40:27;10.53;;;5.27;;
10041;SDS011;5061;49.068;12.058;2023-03-05T13:47:16;8.07;;;4.27;;
10041;SDS011;5061;49.068;12.058;2023-03-05T13:50:39;7.27;;;4.30;;
10041;SDS011;5061;49.068;12.058;2023-03-05T13:54:00;6.60;;;3.70;;
10041;SDS011;5061;49.068;12.058;2023-03-05T13:57:43;9.60;;;4.87;;
10041;SDS011;5061;49.068;12.058;2023-03-05T14:04:59;7.97;;;4.50;;
10041;SDS011;5061;49.068;12.058;2023-03-05T14:08:21;5.37;;;3.70;;
10041;SDS011;5061;49.068;12.058;2023-03-05T14:11:54;7.07;;;3.30;;
10041;SDS011;5061;49.068;12.058;2023-03-05T14:18:53;6.00;;;4.00;;
10041;SDS011;5061;49.068;12.058;2023-03-05T14:22:31;7.83;;;4.00;;
10041;SDS011;5061;49.068;12.058;2023-03-05T14:29:44;4.97;;;3.20;;
10041;SDS011;5061;49.068;12.058;2023-03-05T14:33:06;7.47;;;2.67;;
10041;SDS011;5061;49.068;12.058;2023-03-05T14:36:26;3.37;;;2.30;;
10041;SDS011;5061;49.068;12.058;2023-03-05T14:39:55;7.23;;;3.13;;
10041;SDS011;5061;49.068;12.058;2023-03-05T14:43:21;6.73;;;3.40;;
10041;SDS011;5061;49.068;12.058;2023-03-05T14:46:42;4.97;;;2.40;;
10041;SDS011;5061;49.068;12.058;2023-03-05T14:50:07;3.00;;;2.10;;
10041;SDS011;5061;49.068;12.058;2023-03-05T14:53:37;3.30;;;2.20;;
10041;SDS011;5061;49.068;12.058;2023-03-05T14:57:02;3.50;;;2.27;;
10041;SDS011;5061;49.068;12.058;2023-03-05T15:00:24;3.00;;;2.13;;
10041;SDS011;5061;49.068;12.058;2023-03-05T15:03:47;5.73;;;2.37;;
10041;SDS011;5061;49.068;12.058;2023-03-05T15:07:10;2.70;;;1.90;;
10041;SDS011;5061;49.068;12.058;2023-03-05T15:10:41;3.13;;;2.00;;
10041;SDS011;5061;49.068;12.058;2023-03-05T15:14:02;3.13;;;1.80;;
10041;SDS011;5061;49.068;12.058;2023-03-05T15:17:33;2.10;;;1.87;;
10041;SDS011;5061;49.068;12.058;2023-03-05T15:20:56;4.63;;;1.73;;
10041;SDS011;5061;49.068;12.058;2023-03-05T15:24:16;4.93;;;2.37;;
10041;SDS011;5061;49.068;12.058;2023-03-05T15:27:37;2.80;;;1.60;;
10041;SDS011;5061;49.068;12.058;2023-03-05T15:30:58;2.80;;;1.80;;
10041;SDS011;5061;49.068;12.058;2023-03-05T15:34:19;8.17;;;2.53;;
10041;SDS011;5061;49.068;12.058;2023-03-05T15:37:40;2.13;;;1.90;;
10041;SDS011;5061;49.068;12.058;2023-03-05T15:41:00;3.00;;;2.20;;
10041;SDS011;5061;49.068;12.058;2023-03-05T15:44:21;5.83;;;2.93;;
10041;SDS011;5061;49.068;12.058;2023-03-05T15:47:41;3.47;;;2.27;;
10041;SDS011;5061;49.068;12.058;2023-03-05T15:51:04;3.47;;;2.07;;
10041;SDS011;5061;49.068;12.058;2023-03-05T15:54:26;5.13;;;2.47;;
10041;SDS011;5061;49.068;12.058;2023-03-05T15:57:47;4.70;;;2.70;;
10041;SDS011;5061;49.068;12.058;2023-03-05T16:01:10;7.67;;;3.20;;
10041;SDS011;5061;49.068;12.058;2023-03-05T16:04:31;6.27;;;3.37;;
10041;SDS011;5061;49.068;12.058;2023-03-05T16:07:51;5.20;;;3.10;;
10041;SDS011;5061;49.068;12.058;2023-03-05T16:11:13;4.30;;;3.20;;
10041;SDS011;5061;49.068;12.058;2023-03-05T16:14:35;4.20;;;2.70;;
10041;SDS011;5061;49.068;12.058;2023-03-05T16:17:58;6.23;;;2.77;;
10041;SDS011;5061;49.068;12.058;2023-03-05T16:21:21;5.43;;;3.07;;
10041;SDS011;5061;49.068;12.058;2023-03-05T16:24:42;6.93;;;2.73;;
10041;SDS011;5061;49.068;12.058;2023-03-05T16:28:02;6.23;;;2.40;;
10041;SDS011;5061;49.068;12.058;2023-03-05T16:31:25;10.13;;;2.93;;
10041;SDS011;5061;49.068;12.058;2023-03-05T16:34:49;6.53;;;2.63;;
10041;SDS011;5061;49.068;12.058;2023-03-05T16:38:09;7.63;;;2.60;;
10041;SDS011;5061;49.068;12.058;2023-03-05T16:41:30;3.63;;;2.40;;
10041;SDS011;5061;49.068;12.058;2023-03-05T16:44:55;7.30;;;3.97;;
10041;SDS011;5061;49.068;12.058;2023-03-05T16:48:16;6.50;;;3.30;;
10041;SDS011;5061;49.068;12.058;2023-03-05T16:51:36;7.20;;;3.63;;
10041;SDS011;5061;49.068;12.058;2023-03-05T16:54:57;9.00;;;3.73;;
10041;SDS011;5061;49.068;12.058;2023-03-05T16:58:18;9.10;;;3.10;;
10041;SDS011;5061;49.068;12.058;2023-03-05T17:01:38;4.77;;;2.90;;
10041;SDS011;5061;49.068;12.058;2023-03-05T17:04:59;5.20;;;3.00;;
10041;SDS011;5061;49.068;12.058;2023-03-05T17:08:20;10.83;;;3.00;;
10041;SDS011;5061;49.068;12.058;2023-03-05T17:11:43;5.20;;;2.70;;
10041;SDS011;5061;49.068;12.058;2023-03-05T17:15:04;4.13;;;3.10;;
10041;SDS011;5061;49.068;12.058;2023-03-05T17:18:25;7.77;;;3.93;;
10041;SDS011;5061;49.068;12.058;2023-03-05T17:21:46;5.63;;;3.53;;
10041;SDS011;5061;49.068;12.058;2023-03-05T17:25:10;6.37;;;3.00;;
10041;SDS011;5061;49.068;12.058;2023-03-05T17:28:30;6.47;;;3.07;;
10041;SDS011;5061;49.068;12.058;2023-03-05T17:31:51;7.53;;;3.20;;
10041;SDS011;5061;49.068;12.058;2023-03-05T17:35:19;5.40;;;3.20;;
10041;SDS011;5061;49.068;12.058;2023-03-05T17:38:40;8.07;;;3.00;;
10041;SDS011;5061;49.068;12.058;2023-03-05T17:42:01;6.90;;;3.10;;
10041;SDS011;5061;49.068;12.058;2023-03-05T17:45:22;5.33;;;3.00;;
10041;SDS011;5061;49.068;12.058;2023-03-05T17:48:43;5.30;;;2.50;;
10041;SDS011;5061;49.068;12.058;2023-03-05T17:52:04;5.13;;;2.70;;
10041;SDS011;5061;49.068;12.058;2023-03-05T17:55:24;5.20;;;3.13;;
10041;SDS011;5061;49.068;12.058;2023-03-05T17:58:45;3.53;;;2.60;;
10041;SDS011;5061;49.068;12.058;2023-03-05T18:02:06;4.93;;;2.77;;
10041;SDS011;5061;49.068;12.058;2023-03-05T18:05:27;5.50;;;2.40;;
10041;SDS011;5061;49.068;12.058;2023-03-05T18:08:48;12.03;;;3.33;;
10041;SDS011;5061;49.068;12.058;2023-03-05T18:12:09;7.33;;;3.90;;
10041;SDS011;5061;49.068;12.058;2023-03-05T18:15:29;5.90;;;4.03;;
10041;SDS011;5061;49.068;12.058;2023-03-05T18:18:50;7.90;;;4.03;;
10041;SDS011;5061;49.068;12.058;2023-03-05T18:22:11;6.63;;;3.77;;
10041;SDS011;5061;49.068;12.058;2023-03-05T18:25:32;7.23;;;4.20;;
10041;SDS011;5061;49.068;12.058;2023-03-05T18:28:52;5.53;;;3.63;;
10041;SDS011;5061;49.068;12.058;2023-03-05T18:32:13;5.60;;;3.37;;
10041;SDS011;5061;49.068;12.058;2023-03-05T18:35:34;5.00;;;3.10;;
10041;SDS011;5061;49.068;12.058;2023-03-05T18:38:55;3.73;;;2.43;;
10041;SDS011;5061;49.068;12.058;2023-03-05T18:42:16;3.90;;;2.10;;
10041;SDS011;5061;49.068;12.058;2023-03-05T18:45:36;3.83;;;3.00;;
10041;SDS011;5061;49.068;12.058;2023-03-05T18:48:57;6.73;;;3.00;;
10041;SDS011;5061;49.068;12.058;2023-03-05T18:52:18;5.10;;;2.67;;
10041;SDS011;5061;49.068;12.058;2023-03-05T18:55:38;3.17;;;2.40;;
10041;SDS011;5061;49.068;12.058;2023-03-05T18:59:02;5.70;;;3.30;;
10041;SDS011;5061;49.068;12.058;2023-03-05T19:02:23;4.87;;;2.70;;
10041;SDS011;5061;49.068;12.058;2023-03-05T19:05:44;9.77;;;3.53;;
10041;SDS011;5061;49.068;12.058;2023-03-05T19:09:04;5.70;;;3.60;;
10041;SDS011;5061;49.068;12.058;2023-03-05T19:12:36;7.93;;;3.47;;
10041;SDS011;5061;49.068;12.058;2023-03-05T19:16:05;7.07;;;3.60;;
10041;SDS011;5061;49.068;12.058;2023-03-05T19:19:27;7.03;;;3.60;;
10041;SDS011;5061;49.068;12.058;2023-03-05T19:22:47;10.60;;;4.43;;
10041;SDS011;5061;49.068;12.058;2023-03-05T19:26:09;6.73;;;4.07;;
10041;SDS011;5061;49.068;12.058;2023-03-05T19:29:30;9.63;;;3.80;;
10041;SDS011;5061;49.068;12.058;2023-03-05T19:32:51;9.90;;;4.40;;
10041;SDS011;5061;49.068;12.058;2023-03-05T19:36:12;8.07;;;4.10;;
10041;SDS011;5061;49.068;12.058;2023-03-05T19:39:33;9.40;;;4.60;;
10041;SDS011;5061;49.068;12.058;2023-03-05T19:42:54;8.07;;;4.53;;
10041;SDS011;5061;49.068;12.058;2023-03-05T19:46:15;8.10;;;4.50;;
10041;SDS011;5061;49.068;12.058;2023-03-05T19:49:36;7.93;;;4.07;;
10041;SDS011;5061;49.068;12.058;2023-03-05T19:52:57;7.03;;;4.17;;
10041;SDS011;5061;49.068;12.058;2023-03-05T19:56:18;9.10;;;4.03;;
10041;SDS011;5061;49.068;12.058;2023-03-05T19:59:38;5.70;;;3.67;;
10041;SDS011;5061;49.068;12.058;2023-03-05T20:02:59;7.77;;;4.50;;
10041;SDS011;5061;49.068;12.058;2023-03-05T20:06:20;7.90;;;4.50;;
10041;SDS011;5061;49.068;12.058;2023-03-05T20:09:43;10.10;;;5.17;;
10041;SDS011;5061;49.068;12.058;2023-03-05T20:13:04;10.97;;;5.33;;
10041;SDS011;5061;49.068;12.058;2023-03-05T20:16:28;6.77;;;4.30;;
10041;SDS011;5061;49.068;12.058;2023-03-05T20:19:54;10.70;;;4.13;;
10041;SDS011;5061;49.068;12.058;2023-03-05T20:23:18;10.13;;;4.83;;
10041;SDS011;5061;49.068;12.058;2023-03-05T20:26:40;8.40;;;4.50;;
10041;SDS011;5061;49.068;12.058;2023-03-05T20:30:05;10.30;;;5.60;;
10041;SDS011;5061;49.068;12.058;2023-03-05T20:33:28;8.07;;;4.10;;
10041;SDS011;5061;49.068;12.058;2023-03-05T20:36:48;9.40;;;4.83;;
10041;SDS011;5061;49.068;12.058;2023-03-05T20:40:09;7.50;;;4.30;;
10041;SDS011;5061;49.068;12.058;2023-03-05T20:43:37;11.50;;;5.23;;
10041;SDS011;5061;49.068;12.058;2023-03-05T20:47:01;10.57;;;5.00;;
10041;SDS011;5061;49.068;12.058;2023-03-05T20:50:35;14.30;;;5.63;;
10041;SDS011;5061;49.068;12.058;2023-03-05T20:53:57;11.67;;;4.90;;
10041;SDS011;5061;49.068;12.058;2023-03-05T20:57:24;12.00;;;4.60;;
10041;SDS011;5061;49.068;12.058;2023-03-05T21:00:45;10.17;;;5.87;;
10041;SDS011;5061;49.068;12.058;2023-03-05T21:04:06;12.27;;;5.20;;
10041;SDS011;5061;49.068;12.058;2023-03-05T21:07:27;13.67;;;5.90;;
10041;SDS011;5061;49.068;12.058;2023-03-05T21:10:48;14.67;;;6.53;;